CheckWX is a tool to help pilots better visualize weather data.  It is not intended as a substitute for an official pre-flight weather briefing.

19:16:27 UTC

CYZR METAR
Sarnia Chris Hadfield Airport
Sarnia, Canada
Current

33 mins ago

CYZR 141843Z AUTO 30010KT 6SM BR BKN013 BKN042 BKN050 OVC060 03/01 A2951 RMK RVR MISG SLP001
Observed
Dec-14 @ 18:43 UTC
Wind
  • 300° at 10 KTS
Visibility
6 SM
Flight Rules
MVFR
Conditions
Mist
Cloud Levels
  • Broken at 1,300' AGL
  • Broken at 4,200' AGL
  • Broken at 5,000' AGL
  • Overcast at 6,000' AGL
Temperature
C / 37°F
Dewpoint
C / 34°F
Humidity
87%
Altimeter
29.51" Hg
Pressure
999.32 hPa
Previous

42 mins ago

CYZR 141834Z AUTO 32010KT 6SM BR FEW013 OVC055 03/01 A2951 RMK RVR MISG SLP001
Observed
Dec-14 @ 18:34 UTC
Wind
  • 320° at 10 KTS
Visibility
6 SM
Flight Rules
VFR
Conditions
Mist
Cloud Levels
  • Few at 1,300' AGL
  • Overcast at 5,500' AGL
Temperature
C / 37°F
Dewpoint
C / 34°F
Humidity
87%
Altimeter
29.51" Hg
Pressure
999.32 hPa
Previous

1 hour ago

CYZR 141800Z AUTO 32009KT 5SM BR FEW008 BKN060 BKN100 03/01 A2952 RMK RVR MISG SLP003
Observed
Dec-14 @ 18:00 UTC
Wind
  • 320° at 9 KTS
Visibility
5 SM
Flight Rules
MVFR
Conditions
Mist
Cloud Levels
  • Few at 800' AGL
  • Broken at 6,000' AGL
  • Broken at 10,000' AGL
Temperature
C / 37°F
Dewpoint
C / 34°F
Humidity
87%
Altimeter
29.52" Hg
Pressure
999.62 hPa